createdAt,value
2019-04-30T00:01:27.832Z,3.23
2019-04-30T00:04:37.512Z,3.53
2019-04-30T00:07:35.729Z,3.20
2019-04-30T00:10:41.325Z,3.60
2019-04-30T00:13:41.684Z,3.47
2019-04-30T00:16:45.041Z,3.40
2019-04-30T00:19:50.476Z,3.53
2019-04-30T00:22:50.499Z,3.03
2019-04-30T00:25:53.160Z,3.00
2019-04-30T00:28:55.325Z,3.10
2019-04-30T00:32:03.900Z,2.83
2019-04-30T00:35:00.171Z,2.93
2019-04-30T00:38:01.628Z,2.90
2019-04-30T00:41:06.926Z,3.10
2019-04-30T00:44:06.603Z,3.12
2019-04-30T00:47:08.855Z,2.93
2019-04-30T00:50:10.588Z,3.77
2019-04-30T00:53:14.093Z,3.40
2019-04-30T00:56:15.762Z,4.10
2019-04-30T00:59:18.269Z,4.47
2019-04-30T01:02:35.826Z,4.83
2019-04-30T01:05:39.597Z,4.10
2019-04-30T01:08:42.421Z,4.03
2019-04-30T01:11:46.558Z,6.10
2019-04-30T01:14:47.135Z,7.60
2019-04-30T01:17:50.915Z,5.87
2019-04-30T01:20:51.683Z,5.03
2019-04-30T01:23:54.786Z,4.90
2019-04-30T01:27:02.104Z,5.37
2019-04-30T01:29:59.884Z,5.30
2019-04-30T01:33:01.304Z,5.00
2019-04-30T01:36:04.011Z,6.40
2019-04-30T01:39:09.366Z,6.33
2019-04-30T01:42:11.456Z,7.70
2019-04-30T01:45:13.234Z,8.35
2019-04-30T01:48:14.660Z,8.00
2019-04-30T01:51:18.398Z,8.83
2019-04-30T01:54:23.965Z,9.67
2019-04-30T01:57:44.415Z,8.90
2019-04-30T02:00:50.311Z,8.83
2019-04-30T02:03:51.783Z,10.00
2019-04-30T02:06:53.249Z,11.03
2019-04-30T02:09:54.685Z,10.67
2019-04-30T02:12:56.113Z,11.30
2019-04-30T02:15:59.267Z,10.75
2019-04-30T02:19:00.915Z,10.93
2019-04-30T02:22:02.356Z,11.20
2019-04-30T02:25:03.873Z,12.73
2019-04-30T02:28:05.356Z,12.20
2019-04-30T02:31:09.235Z,12.68
2019-04-30T02:34:21.774Z,12.07
2019-04-30T02:37:24.524Z,13.13
2019-04-30T02:40:25.972Z,14.75
2019-04-30T02:43:30.066Z,15.23
2019-04-30T02:46:32.607Z,15.30
2019-04-30T02:49:35.786Z,17.43
2019-04-30T02:52:40.182Z,18.13
2019-04-30T02:55:45.440Z,18.23
2019-04-30T02:58:46.811Z,18.77
2019-04-30T03:01:50.120Z,18.70
2019-04-30T03:04:51.421Z,19.27
2019-04-30T03:07:53.455Z,17.52
2019-04-30T03:10:55.197Z,19.27
2019-04-30T03:13:59.059Z,18.20
2019-04-30T03:17:10.221Z,19.70
2019-04-30T03:20:35.619Z,19.27
2019-04-30T03:23:33.299Z,19.33
2019-04-30T03:26:34.761Z,18.73
2019-04-30T03:29:36.181Z,19.33
2019-04-30T03:32:42.640Z,20.50
2019-04-30T03:35:46.593Z,18.40
2019-04-30T03:38:43.838Z,20.60
2019-04-30T03:41:45.257Z,18.02
2019-04-30T03:44:49.420Z,18.37
2019-04-30T03:47:50.406Z,19.10
2019-04-30T03:50:56.621Z,20.07
2019-04-30T03:53:55.207Z,21.13
2019-04-30T03:57:00.622Z,20.03
2019-04-30T04:00:01.939Z,20.70
2019-04-30T04:03:03.436Z,19.50
2019-04-30T04:06:25.678Z,20.53
2019-04-30T04:09:33.208Z,22.70
2019-04-30T04:12:34.625Z,21.63
2019-04-30T04:15:36.031Z,21.73
2019-04-30T04:18:40.195Z,20.30
2019-04-30T04:21:41.834Z,21.60
2019-04-30T04:24:43.293Z,21.77
2019-04-30T04:27:44.747Z,20.60
2019-04-30T04:30:46.144Z,21.80
2019-04-30T04:33:52.309Z,21.10
2019-04-30T04:36:50.911Z,21.73
2019-04-30T04:39:52.356Z,21.87
2019-04-30T04:42:53.780Z,21.13
2019-04-30T04:45:55.150Z,20.60
2019-04-30T04:48:59.484Z,20.77
2019-04-30T04:51:59.635Z,19.03
2019-04-30T04:55:00.999Z,18.80
2019-04-30T04:58:02.370Z,18.07
2019-04-30T05:01:03.704Z,18.03
2019-04-30T05:04:05.060Z,18.20
2019-04-30T05:07:06.408Z,17.40
2019-04-30T05:10:09.208Z,18.40
2019-04-30T05:13:10.744Z,16.97
2019-04-30T05:16:12.166Z,17.70
2019-04-30T05:19:13.525Z,16.67
2019-04-30T05:22:14.916Z,17.43
2019-04-30T05:25:16.296Z,17.53
2019-04-30T05:28:18.886Z,17.43
2019-04-30T05:31:21.082Z,17.43
2019-04-30T05:34:22.541Z,18.13
2019-04-30T05:37:23.886Z,17.10
2019-04-30T05:40:25.286Z,15.43
2019-04-30T05:43:26.628Z,16.53
2019-04-30T05:46:29.877Z,18.67
2019-04-30T05:49:31.053Z,18.50
2019-04-30T05:52:32.484Z,18.23
2019-04-30T05:55:33.885Z,18.43
2019-04-30T05:58:35.238Z,19.97
2019-04-30T06:01:36.559Z,17.97
2019-04-30T06:04:38.721Z,19.13
2019-04-30T06:07:40.339Z,19.42
2019-04-30T06:11:00.670Z,18.33
2019-04-30T06:14:24.934Z,20.13
2019-04-30T06:17:29.363Z,20.40
2019-04-30T06:20:30.813Z,20.17
2019-04-30T06:23:32.167Z,20.90
2019-04-30T06:26:33.741Z,21.20
2019-04-30T06:29:36.723Z,20.35
2019-04-30T06:32:39.507Z,20.57
2019-04-30T06:35:41.141Z,19.80
2019-04-30T06:38:42.627Z,20.83
2019-04-30T06:41:44.010Z,22.50
2019-04-30T06:44:45.485Z,26.83
2019-04-30T06:47:48.769Z,28.07
2019-04-30T06:50:50.214Z,30.30
2019-04-30T06:53:51.624Z,29.90
2019-04-30T06:56:52.990Z,31.00
2019-04-30T06:59:55.436Z,31.37
2019-04-30T07:02:56.800Z,32.20
2019-04-30T07:05:58.611Z,32.00
2019-04-30T07:09:26.777Z,37.90
2019-04-30T07:12:35.525Z,30.97
2019-04-30T07:15:37.002Z,30.93
2019-04-30T07:18:38.840Z,29.80
2019-04-30T07:21:42.711Z,30.37
2019-04-30T07:24:43.387Z,31.67
2019-04-30T07:27:44.814Z,31.37
2019-04-30T07:30:46.218Z,30.60
2019-04-30T07:33:51.534Z,31.03
2019-04-30T07:37:10.448Z,30.75
2019-04-30T07:39:53.890Z,31.47
2019-04-30T07:42:55.304Z,30.48
2019-04-30T07:45:56.712Z,31.67
2019-04-30T07:48:59.918Z,29.67
2019-04-30T07:52:02.330Z,29.77
2019-04-30T07:55:04.289Z,29.20
2019-04-30T07:58:05.668Z,31.17
2019-04-30T08:01:10.032Z,29.55
2019-04-30T08:04:29.419Z,28.92
2019-04-30T08:07:30.897Z,29.50
2019-04-30T08:10:32.352Z,29.87
2019-04-30T08:13:34.161Z,29.63
2019-04-30T08:16:36.091Z,29.60
2019-04-30T08:19:38.474Z,28.17
2019-04-30T08:22:41.118Z,29.23
2019-04-30T08:25:42.571Z,29.67
2019-04-30T08:28:43.942Z,28.50
2019-04-30T08:31:45.348Z,27.98
2019-04-30T08:34:46.761Z,28.47
2019-04-30T08:37:49.661Z,28.80
2019-04-30T08:40:55.996Z,27.57
2019-04-30T08:43:54.514Z,27.65
2019-04-30T08:46:55.915Z,27.77
2019-04-30T08:50:01.580Z,26.65
2019-04-30T08:53:00.865Z,26.10
2019-04-30T08:56:02.496Z,25.80
2019-04-30T08:59:03.992Z,25.27
2019-04-30T09:02:13.679Z,25.65
2019-04-30T09:05:15.635Z,25.52
2019-04-30T09:08:19.384Z,25.95
2019-04-30T09:11:27.397Z,26.05
2019-04-30T09:14:24.025Z,26.50
2019-04-30T09:17:25.399Z,25.43
2019-04-30T09:20:26.808Z,25.37
2019-04-30T09:23:42.922Z,26.05
2019-04-30T09:26:32.374Z,26.37
2019-04-30T09:29:33.747Z,25.60
2019-04-30T09:32:35.143Z,25.92
2019-04-30T09:35:37.226Z,26.77
2019-04-30T09:38:38.982Z,27.07
2019-04-30T09:41:41.157Z,26.17
2019-04-30T09:44:42.666Z,25.85
2019-04-30T09:47:44.032Z,26.90
2019-04-30T09:50:45.801Z,28.07
2019-04-30T09:53:56.872Z,26.55
2019-04-30T09:56:52.694Z,27.20
2019-04-30T09:59:53.679Z,27.70
2019-04-30T10:02:55.366Z,26.68
2019-04-30T10:05:58.938Z,27.67
2019-04-30T10:08:59.917Z,27.22
2019-04-30T10:12:10.212Z,27.65
2019-04-30T10:15:15.503Z,25.85
2019-04-30T10:18:16.907Z,25.23
2019-04-30T10:21:19.084Z,25.02
2019-04-30T10:24:20.694Z,23.92
2019-04-30T10:27:22.063Z,24.07
2019-04-30T10:30:29.197Z,24.10
2019-04-30T10:33:30.736Z,23.07
2019-04-30T10:36:32.177Z,23.20
2019-04-30T10:39:33.566Z,22.73
2019-04-30T10:42:35.040Z,22.67
2019-04-30T10:45:38.790Z,22.10
2019-04-30T10:48:43.423Z,21.17
2019-04-30T10:51:44.540Z,21.60
2019-04-30T10:54:45.972Z,20.10
2019-04-30T10:57:49.435Z,21.00
2019-04-30T11:00:50.447Z,20.02
2019-04-30T11:03:51.895Z,20.35
2019-04-30T11:06:53.277Z,19.65
2019-04-30T11:09:54.693Z,21.07
2019-04-30T11:12:56.114Z,19.62
2019-04-30T11:16:06.370Z,19.73
2019-04-30T11:19:00.664Z,19.17
2019-04-30T11:22:02.319Z,20.35
2019-04-30T11:25:04.175Z,20.23
2019-04-30T11:28:06.640Z,19.87
2019-04-30T11:31:36.589Z,19.52
2019-04-30T11:34:38.059Z,18.73
2019-04-30T11:37:39.442Z,20.17
2019-04-30T11:40:40.879Z,20.35
2019-04-30T11:43:42.268Z,19.20
2019-04-30T11:47:26.004Z,18.40
2019-04-30T11:50:29.989Z,19.40
2019-04-30T11:53:30.775Z,19.02
2019-04-30T11:56:32.248Z,20.97
2019-04-30T11:59:33.613Z,21.02
2019-04-30T12:02:42.311Z,18.95
2019-04-30T12:05:43.715Z,20.32
2019-04-30T12:09:02.849Z,19.70
2019-04-30T12:12:06.217Z,19.57
2019-04-30T12:15:09.303Z,19.32
2019-04-30T12:18:10.835Z,19.70
2019-04-30T12:21:12.230Z,19.92
2019-04-30T12:24:13.581Z,20.45
2019-04-30T12:27:14.986Z,19.25
2019-04-30T12:30:16.662Z,19.92
2019-04-30T12:33:19.125Z,20.43
2019-04-30T12:36:20.707Z,18.50
2019-04-30T12:39:22.096Z,20.77
2019-04-30T12:42:23.496Z,18.80
2019-04-30T12:45:24.866Z,19.30
2019-04-30T12:48:35.581Z,19.77
2019-04-30T12:51:59.835Z,19.30
2019-04-30T12:55:19.956Z,19.82
2019-04-30T12:58:21.292Z,18.75
2019-04-30T13:01:23.900Z,18.85
2019-04-30T13:04:26.388Z,17.52
2019-04-30T13:07:30.377Z,18.60
2019-04-30T13:10:31.480Z,15.63
2019-04-30T13:13:33.460Z,14.87
2019-04-30T13:16:34.992Z,14.38
2019-04-30T13:19:36.384Z,14.50
2019-04-30T13:22:38.861Z,13.50
2019-04-30T13:25:50.810Z,11.38
2019-04-30T13:29:08.601Z,13.75
2019-04-30T13:32:10.024Z,13.60
2019-04-30T13:35:11.583Z,14.10
2019-04-30T13:38:20.449Z,14.13
2019-04-30T13:41:46.589Z,11.50
2019-04-30T13:44:49.366Z,12.03
2019-04-30T13:47:50.891Z,11.22
2019-04-30T13:50:52.255Z,10.50
2019-04-30T13:53:53.657Z,10.43
2019-04-30T13:56:55.047Z,10.88
2019-04-30T13:59:56.441Z,11.00
2019-04-30T14:03:05.259Z,11.55
2019-04-30T14:06:09.120Z,12.78
2019-04-30T14:09:19.631Z,10.80
2019-04-30T14:12:21.058Z,10.72
2019-04-30T14:15:22.778Z,11.30
2019-04-30T14:18:31.006Z,9.08
2019-04-30T14:21:34.551Z,11.20
2019-04-30T14:24:30.348Z,11.18
2019-04-30T14:27:31.729Z,11.50
2019-04-30T14:30:33.145Z,12.50
2019-04-30T14:33:34.525Z,11.63
2019-04-30T14:36:35.949Z,10.40
2019-04-30T14:39:37.754Z,9.65
2019-04-30T14:42:45.283Z,10.88
2019-04-30T14:46:05.466Z,11.55
2019-04-30T14:49:33.280Z,10.68
2019-04-30T14:52:40.875Z,10.30
2019-04-30T14:56:08.695Z,12.23
2019-04-30T14:59:28.810Z,10.28
2019-04-30T15:02:36.349Z,11.38
2019-04-30T15:05:40.475Z,10.30
2019-04-30T15:08:40.983Z,11.08
2019-04-30T15:11:42.395Z,10.93
2019-04-30T15:14:43.899Z,10.98
2019-04-30T15:17:45.281Z,12.07
2019-04-30T15:20:46.680Z,10.70
2019-04-30T15:24:09.426Z,9.90
2019-04-30T15:27:10.922Z,12.73
2019-04-30T15:30:13.087Z,11.50
2019-04-30T15:33:45.574Z,12.75
2019-04-30T15:36:46.977Z,11.40
2019-04-30T15:39:49.041Z,10.90
2019-04-30T15:42:52.254Z,11.00
2019-04-30T15:45:53.650Z,10.20
2019-04-30T15:48:55.021Z,10.68
2019-04-30T15:51:56.504Z,12.63
2019-04-30T15:54:59.239Z,11.25
2019-04-30T15:58:09.297Z,11.80
2019-04-30T16:01:12.852Z,10.25
2019-04-30T16:04:15.993Z,11.78
2019-04-30T16:07:17.378Z,10.60
2019-04-30T16:10:47.477Z,11.28
2019-04-30T16:14:20.223Z,11.30
2019-04-30T16:17:22.705Z,10.35
2019-04-30T16:20:24.085Z,11.78
2019-04-30T16:23:25.545Z,11.22
2019-04-30T16:26:28.988Z,10.90
2019-04-30T16:29:30.160Z,10.20
2019-04-30T16:32:31.637Z,10.32
2019-04-30T16:35:33.110Z,10.13
2019-04-30T16:38:35.683Z,11.38
2019-04-30T16:41:40.553Z,10.98
2019-04-30T16:44:41.215Z,9.93
2019-04-30T16:47:42.649Z,11.48
2019-04-30T16:50:44.019Z,11.48
2019-04-30T16:53:45.411Z,11.70
2019-04-30T16:56:49.638Z,11.05
2019-04-30T16:59:51.013Z,10.03
2019-04-30T17:02:58.431Z,10.68
2019-04-30T17:06:05.953Z,10.45
2019-04-30T17:09:20.202Z,10.98
2019-04-30T17:12:26.787Z,11.45
2019-04-30T17:15:29.625Z,11.25
2019-04-30T17:18:31.005Z,11.12
2019-04-30T17:21:32.403Z,10.32
2019-04-30T17:24:33.863Z,11.45
2019-04-30T17:27:35.316Z,10.78
2019-04-30T17:30:39.168Z,10.10
2019-04-30T17:33:40.655Z,10.18
2019-04-30T17:36:42.046Z,10.13
2019-04-30T17:39:43.557Z,10.88
2019-04-30T17:42:44.987Z,11.25
2019-04-30T17:45:46.436Z,10.63
2019-04-30T17:48:49.518Z,10.25
2019-04-30T17:51:51.945Z,10.95
2019-04-30T17:54:53.387Z,11.00
2019-04-30T17:57:55.044Z,11.35
2019-04-30T18:00:59.780Z,10.90
2019-04-30T18:04:02.307Z,12.00
2019-04-30T18:07:03.721Z,12.35
2019-04-30T18:10:08.761Z,12.58
2019-04-30T18:13:10.372Z,11.73
2019-04-30T18:16:11.842Z,12.05
2019-04-30T18:19:20.359Z,12.30
2019-04-30T18:22:52.570Z,11.40
2019-04-30T18:26:01.481Z,11.83
2019-04-30T18:29:02.882Z,12.25
2019-04-30T18:32:04.328Z,10.93
2019-04-30T18:35:06.105Z,10.55
2019-04-30T18:38:09.623Z,12.28
2019-04-30T18:41:10.849Z,24.67
2019-04-30T18:44:12.310Z,21.82
2019-04-30T18:47:13.745Z,21.65
2019-04-30T18:50:15.413Z,15.93
2019-04-30T18:53:21.538Z,13.45
2019-04-30T18:56:23.010Z,12.88
2019-04-30T18:59:24.501Z,11.18
2019-04-30T19:02:25.971Z,12.00
2019-04-30T19:05:30.922Z,12.13
2019-04-30T19:08:36.783Z,11.73
2019-04-30T19:11:53.637Z,10.90
2019-04-30T19:15:19.303Z,11.30
2019-04-30T19:18:32.239Z,11.53
2019-04-30T19:21:33.674Z,11.12
2019-04-30T19:24:35.237Z,12.18
2019-04-30T19:27:36.643Z,13.75
2019-04-30T19:30:38.984Z,12.82
2019-04-30T19:33:40.429Z,13.22
2019-04-30T19:36:41.818Z,13.35
2019-04-30T19:39:43.202Z,13.85
2019-04-30T19:42:44.655Z,13.80
2019-04-30T19:45:46.091Z,15.20
2019-04-30T19:48:50.479Z,13.58
2019-04-30T19:51:53.187Z,14.18
2019-04-30T19:54:54.750Z,13.50
2019-04-30T19:57:56.116Z,15.45
2019-04-30T20:00:59.388Z,16.00
2019-04-30T20:04:00.605Z,15.93
2019-04-30T20:07:02.103Z,16.93
2019-04-30T20:10:04.332Z,16.20
2019-04-30T20:13:06.046Z,13.93
2019-04-30T20:16:09.483Z,14.35
2019-04-30T20:19:10.533Z,13.10
2019-04-30T20:22:12.087Z,14.58
2019-04-30T20:25:13.524Z,14.93
2019-04-30T20:28:14.925Z,15.53
2019-04-30T20:31:16.303Z,13.70
2019-04-30T20:34:19.178Z,13.32
2019-04-30T20:37:20.777Z,13.45
2019-04-30T20:40:23.665Z,14.18
2019-04-30T20:43:25.006Z,14.50
2019-04-30T20:46:34.355Z,13.68
2019-04-30T20:49:29.588Z,14.58
2019-04-30T20:52:32.358Z,15.10
2019-04-30T20:55:33.849Z,13.90
2019-04-30T20:58:35.290Z,13.23
2019-04-30T21:01:36.724Z,13.60
2019-04-30T21:04:38.127Z,13.08
2019-04-30T21:07:39.528Z,13.68
2019-04-30T21:10:40.929Z,13.83
2019-04-30T21:13:42.313Z,15.10
2019-04-30T21:17:08.548Z,14.50
2019-04-30T21:20:10.793Z,14.15
2019-04-30T21:23:12.151Z,13.95
2019-04-30T21:26:13.601Z,13.15
2019-04-30T21:29:16.060Z,14.87
2019-04-30T21:32:25.848Z,14.83
2019-04-30T21:35:52.304Z,15.43
2019-04-30T21:38:53.804Z,13.68
2019-04-30T21:41:55.313Z,13.53
2019-04-30T21:44:56.660Z,14.20
2019-04-30T21:47:58.872Z,14.50
2019-04-30T21:51:01.093Z,14.10
2019-04-30T21:54:02.556Z,14.83
2019-04-30T21:57:03.891Z,13.50
2019-04-30T22:00:08.933Z,13.70
2019-04-30T22:03:11.960Z,14.30
2019-04-30T22:06:14.388Z,14.50
2019-04-30T22:09:16.749Z,13.73
2019-04-30T22:12:19.155Z,13.43
2019-04-30T22:15:20.600Z,14.33
2019-04-30T22:18:21.950Z,13.77
2019-04-30T22:21:23.380Z,12.10
2019-04-30T22:24:24.733Z,12.30
2019-04-30T22:27:26.083Z,14.30
2019-04-30T22:30:27.430Z,13.50
2019-04-30T22:33:29.309Z,12.97
2019-04-30T22:36:35.514Z,12.63
2019-04-30T22:39:49.628Z,13.45
2019-04-30T22:42:52.064Z,12.67
2019-04-30T22:45:59.530Z,12.23
2019-04-30T22:49:00.971Z,11.90
2019-04-30T22:52:02.430Z,12.30
2019-04-30T22:55:03.987Z,12.13
2019-04-30T22:58:05.452Z,12.37
2019-04-30T23:01:23.658Z,12.33
2019-04-30T23:04:38.093Z,12.90
2019-04-30T23:07:39.435Z,12.57
2019-04-30T23:10:40.787Z,12.07
2019-04-30T23:13:42.122Z,12.47
2019-04-30T23:16:43.698Z,11.80
2019-04-30T23:19:49.384Z,11.57
2019-04-30T23:22:48.194Z,11.80
2019-04-30T23:25:49.537Z,13.00
2019-04-30T23:28:50.903Z,11.07
2019-04-30T23:31:52.255Z,12.10
2019-04-30T23:34:53.618Z,12.07
2019-04-30T23:37:54.975Z,11.33
2019-04-30T23:40:56.330Z,11.83
2019-04-30T23:43:57.681Z,11.43
2019-04-30T23:46:59.046Z,12.73
2019-04-30T23:50:00.397Z,12.30
2019-04-30T23:53:01.729Z,13.20
2019-04-30T23:56:03.104Z,12.47
2019-04-30T23:59:04.450Z,12.17
